sensor_id;sensor_type;location;lat;lon;timestamp;P1;durP1;ratioP1;P2;durP2;ratioP2
11197;SDS011;5655;48.744;9.162;2024-02-26T00:02:13;2.47;;;1.83;;
11197;SDS011;5655;48.744;9.162;2024-02-26T00:04:39;1.83;;;1.40;;
11197;SDS011;5655;48.744;9.162;2024-02-26T00:07:04;2.03;;;1.60;;
11197;SDS011;5655;48.744;9.162;2024-02-26T00:09:30;2.40;;;1.50;;
11197;SDS011;5655;48.744;9.162;2024-02-26T00:11:55;2.25;;;1.40;;
11197;SDS011;5655;48.744;9.162;2024-02-26T00:14:20;1.98;;;1.52;;
11197;SDS011;5655;48.744;9.162;2024-02-26T00:16:46;2.10;;;1.60;;
11197;SDS011;5655;48.744;9.162;2024-02-26T00:19:11;2.15;;;1.30;;
11197;SDS011;5655;48.744;9.162;2024-02-26T00:21:39;3.50;;;1.60;;
11197;SDS011;5655;48.744;9.162;2024-02-26T00:24:06;2.47;;;1.55;;
11197;SDS011;5655;48.744;9.162;2024-02-26T00:26:31;2.42;;;1.50;;
11197;SDS011;5655;48.744;9.162;2024-02-26T00:28:57;3.03;;;1.48;;
11197;SDS011;5655;48.744;9.162;2024-02-26T00:31:22;3.35;;;1.67;;
11197;SDS011;5655;48.744;9.162;2024-02-26T00:33:48;2.97;;;1.55;;
11197;SDS011;5655;48.744;9.162;2024-02-26T00:36:13;3.35;;;1.60;;
11197;SDS011;5655;48.744;9.162;2024-02-26T00:38:38;2.03;;;1.50;;
11197;SDS011;5655;48.744;9.162;2024-02-26T00:41:05;3.38;;;1.50;;
11197;SDS011;5655;48.744;9.162;2024-02-26T00:43:30;2.78;;;1.50;;
11197;SDS011;5655;48.744;9.162;2024-02-26T00:45:56;1.98;;;1.30;;
11197;SDS011;5655;48.744;9.162;2024-02-26T00:48:21;1.77;;;1.40;;
11197;SDS011;5655;48.744;9.162;2024-02-26T00:50:47;2.47;;;1.83;;
11197;SDS011;5655;48.744;9.162;2024-02-26T00:53:12;2.25;;;1.45;;
11197;SDS011;5655;48.744;9.162;2024-02-26T00:55:37;1.30;;;1.20;;
11197;SDS011;5655;48.744;9.162;2024-02-26T00:58:03;3.40;;;2.03;;
11197;SDS011;5655;48.744;9.162;2024-02-26T01:00:28;3.15;;;2.05;;
11197;SDS011;5655;48.744;9.162;2024-02-26T01:02:53;2.78;;;1.73;;
11197;SDS011;5655;48.744;9.162;2024-02-26T01:05:19;2.35;;;1.52;;
11197;SDS011;5655;48.744;9.162;2024-02-26T01:07:44;2.78;;;1.73;;
11197;SDS011;5655;48.744;9.162;2024-02-26T01:10:09;2.97;;;2.08;;
11197;SDS011;5655;48.744;9.162;2024-02-26T01:12:35;2.15;;;1.60;;
11197;SDS011;5655;48.744;9.162;2024-02-26T01:15:01;2.60;;;1.88;;
11197;SDS011;5655;48.744;9.162;2024-02-26T01:17:28;1.40;;;1.30;;
11197;SDS011;5655;48.744;9.162;2024-02-26T01:19:53;2.25;;;1.80;;
11197;SDS011;5655;48.744;9.162;2024-02-26T01:22:19;3.00;;;1.67;;
11197;SDS011;5655;48.744;9.162;2024-02-26T01:24:44;2.25;;;1.90;;
11197;SDS011;5655;48.744;9.162;2024-02-26T01:27:10;2.65;;;1.73;;
11197;SDS011;5655;48.744;9.162;2024-02-26T01:29:35;2.55;;;1.90;;
11197;SDS011;5655;48.744;9.162;2024-02-26T01:32:00;2.55;;;2.05;;
11197;SDS011;5655;48.744;9.162;2024-02-26T01:34:25;2.00;;;1.85;;
11197;SDS011;5655;48.744;9.162;2024-02-26T01:36:51;2.83;;;1.50;;
11197;SDS011;5655;48.744;9.162;2024-02-26T01:39:16;2.13;;;1.60;;
11197;SDS011;5655;48.744;9.162;2024-02-26T01:41:41;1.90;;;1.70;;
11197;SDS011;5655;48.744;9.162;2024-02-26T01:44:07;3.25;;;1.52;;
11197;SDS011;5655;48.744;9.162;2024-02-26T01:46:32;3.83;;;1.80;;
11197;SDS011;5655;48.744;9.162;2024-02-26T01:49:00;2.47;;;2.00;;
11197;SDS011;5655;48.744;9.162;2024-02-26T01:51:26;1.67;;;1.58;;
11197;SDS011;5655;48.744;9.162;2024-02-26T01:53:52;2.25;;;1.83;;
11197;SDS011;5655;48.744;9.162;2024-02-26T01:56:18;2.10;;;1.70;;
11197;SDS011;5655;48.744;9.162;2024-02-26T01:58:46;3.35;;;1.65;;
11197;SDS011;5655;48.744;9.162;2024-02-26T02:01:12;3.45;;;1.85;;
11197;SDS011;5655;48.744;9.162;2024-02-26T02:03:39;3.75;;;2.10;;
11197;SDS011;5655;48.744;9.162;2024-02-26T02:06:06;4.25;;;1.90;;
11197;SDS011;5655;48.744;9.162;2024-02-26T02:08:32;2.10;;;1.70;;
11197;SDS011;5655;48.744;9.162;2024-02-26T02:11:00;4.45;;;2.00;;
11197;SDS011;5655;48.744;9.162;2024-02-26T02:13:25;3.30;;;1.95;;
11197;SDS011;5655;48.744;9.162;2024-02-26T02:15:51;3.30;;;1.70;;
11197;SDS011;5655;48.744;9.162;2024-02-26T02:18:16;2.65;;;1.80;;
11197;SDS011;5655;48.744;9.162;2024-02-26T02:20:42;1.85;;;1.58;;
11197;SDS011;5655;48.744;9.162;2024-02-26T02:23:08;3.28;;;1.85;;
11197;SDS011;5655;48.744;9.162;2024-02-26T02:25:33;1.60;;;1.50;;
11197;SDS011;5655;48.744;9.162;2024-02-26T02:27:58;1.52;;;1.30;;
11197;SDS011;5655;48.744;9.162;2024-02-26T02:30:24;2.03;;;1.30;;
11197;SDS011;5655;48.744;9.162;2024-02-26T02:32:52;1.30;;;1.20;;
11197;SDS011;5655;48.744;9.162;2024-02-26T02:35:18;1.92;;;1.30;;
11197;SDS011;5655;48.744;9.162;2024-02-26T02:37:43;2.60;;;1.48;;
11197;SDS011;5655;48.744;9.162;2024-02-26T02:40:09;1.42;;;1.25;;
11197;SDS011;5655;48.744;9.162;2024-02-26T02:42:34;1.75;;;0.98;;
11197;SDS011;5655;48.744;9.162;2024-02-26T02:44:59;1.92;;;0.98;;
11197;SDS011;5655;48.744;9.162;2024-02-26T02:47:25;2.20;;;1.35;;
11197;SDS011;5655;48.744;9.162;2024-02-26T02:49:50;1.70;;;1.40;;
11197;SDS011;5655;48.744;9.162;2024-02-26T02:52:15;3.42;;;1.45;;
11197;SDS011;5655;48.744;9.162;2024-02-26T02:54:41;1.35;;;1.10;;
11197;SDS011;5655;48.744;9.162;2024-02-26T02:57:06;1.20;;;1.10;;
11197;SDS011;5655;48.744;9.162;2024-02-26T02:59:32;1.50;;;1.20;;
11197;SDS011;5655;48.744;9.162;2024-02-26T03:01:57;1.75;;;1.10;;
11197;SDS011;5655;48.744;9.162;2024-02-26T03:04:23;1.50;;;1.10;;
11197;SDS011;5655;48.744;9.162;2024-02-26T03:06:48;1.63;;;1.00;;
11197;SDS011;5655;48.744;9.162;2024-02-26T03:09:14;1.65;;;1.08;;
11197;SDS011;5655;48.744;9.162;2024-02-26T03:11:39;1.10;;;1.00;;
11197;SDS011;5655;48.744;9.162;2024-02-26T03:14:05;1.85;;;1.10;;
11197;SDS011;5655;48.744;9.162;2024-02-26T03:16:31;1.92;;;0.93;;
11197;SDS011;5655;48.744;9.162;2024-02-26T03:18:57;2.45;;;0.95;;
11197;SDS011;5655;48.744;9.162;2024-02-26T03:21:22;1.40;;;0.80;;
11197;SDS011;5655;48.744;9.162;2024-02-26T03:23:47;1.50;;;0.80;;
11197;SDS011;5655;48.744;9.162;2024-02-26T03:26:13;0.60;;;0.60;;
11197;SDS011;5655;48.744;9.162;2024-02-26T03:28:39;0.75;;;0.68;;
11197;SDS011;5655;48.744;9.162;2024-02-26T03:31:05;1.08;;;0.70;;
11197;SDS011;5655;48.744;9.162;2024-02-26T03:33:30;0.90;;;0.60;;
11197;SDS011;5655;48.744;9.162;2024-02-26T03:35:56;0.77;;;0.60;;
11197;SDS011;5655;48.744;9.162;2024-02-26T03:38:21;1.05;;;0.63;;
11197;SDS011;5655;48.744;9.162;2024-02-26T03:40:47;0.82;;;0.60;;
11197;SDS011;5655;48.744;9.162;2024-02-26T03:43:12;0.65;;;0.57;;
11197;SDS011;5655;48.744;9.162;2024-02-26T03:45:38;0.90;;;0.70;;
11197;SDS011;5655;48.744;9.162;2024-02-26T03:48:03;0.70;;;0.70;;
11197;SDS011;5655;48.744;9.162;2024-02-26T03:50:28;0.60;;;0.60;;
11197;SDS011;5655;48.744;9.162;2024-02-26T03:52:54;0.88;;;0.60;;
11197;SDS011;5655;48.744;9.162;2024-02-26T03:55:19;0.85;;;0.65;;
11197;SDS011;5655;48.744;9.162;2024-02-26T03:57:49;0.80;;;0.70;;
11197;SDS011;5655;48.744;9.162;2024-02-26T04:00:15;0.90;;;0.52;;
11197;SDS011;5655;48.744;9.162;2024-02-26T04:02:41;1.20;;;0.60;;
11197;SDS011;5655;48.744;9.162;2024-02-26T04:05:08;0.85;;;0.50;;
11197;SDS011;5655;48.744;9.162;2024-02-26T04:07:35;0.90;;;0.80;;
11197;SDS011;5655;48.744;9.162;2024-02-26T04:10:00;0.93;;;0.60;;
11197;SDS011;5655;48.744;9.162;2024-02-26T04:12:28;0.77;;;0.70;;
11197;SDS011;5655;48.744;9.162;2024-02-26T04:14:54;1.10;;;0.80;;
11197;SDS011;5655;48.744;9.162;2024-02-26T04:17:19;0.65;;;0.60;;
11197;SDS011;5655;48.744;9.162;2024-02-26T04:19:44;1.02;;;0.80;;
11197;SDS011;5655;48.744;9.162;2024-02-26T04:22:10;0.98;;;0.70;;
11197;SDS011;5655;48.744;9.162;2024-02-26T04:24:36;1.30;;;0.98;;
11197;SDS011;5655;48.744;9.162;2024-02-26T04:27:01;1.90;;;0.93;;
11197;SDS011;5655;48.744;9.162;2024-02-26T04:29:27;1.13;;;0.50;;
11197;SDS011;5655;48.744;9.162;2024-02-26T04:31:52;1.20;;;0.70;;
11197;SDS011;5655;48.744;9.162;2024-02-26T04:34:18;1.42;;;1.00;;
11197;SDS011;5655;48.744;9.162;2024-02-26T04:36:43;1.05;;;0.90;;
11197;SDS011;5655;48.744;9.162;2024-02-26T04:39:09;1.02;;;0.70;;
11197;SDS011;5655;48.744;9.162;2024-02-26T04:41:35;1.27;;;0.93;;
11197;SDS011;5655;48.744;9.162;2024-02-26T04:44:00;0.80;;;0.80;;
11197;SDS011;5655;48.744;9.162;2024-02-26T04:46:26;1.00;;;0.90;;
11197;SDS011;5655;48.744;9.162;2024-02-26T04:48:53;1.75;;;1.10;;
11197;SDS011;5655;48.744;9.162;2024-02-26T04:51:18;1.73;;;1.00;;
11197;SDS011;5655;48.744;9.162;2024-02-26T04:53:44;1.52;;;1.17;;
11197;SDS011;5655;48.744;9.162;2024-02-26T04:56:09;3.10;;;1.85;;
11197;SDS011;5655;48.744;9.162;2024-02-26T04:58:34;2.95;;;1.50;;
11197;SDS011;5655;48.744;9.162;2024-02-26T05:01:00;2.10;;;1.65;;
11197;SDS011;5655;48.744;9.162;2024-02-26T05:03:25;2.45;;;1.65;;
11197;SDS011;5655;48.744;9.162;2024-02-26T05:05:50;2.13;;;1.50;;
11197;SDS011;5655;48.744;9.162;2024-02-26T05:08:16;2.53;;;2.03;;
11197;SDS011;5655;48.744;9.162;2024-02-26T05:10:41;3.17;;;2.00;;
11197;SDS011;5655;48.744;9.162;2024-02-26T05:13:08;2.55;;;2.00;;
11197;SDS011;5655;48.744;9.162;2024-02-26T05:15:33;3.17;;;2.10;;
11197;SDS011;5655;48.744;9.162;2024-02-26T05:17:59;3.30;;;2.20;;
11197;SDS011;5655;48.744;9.162;2024-02-26T05:20:24;3.03;;;2.00;;
11197;SDS011;5655;48.744;9.162;2024-02-26T05:22:50;3.03;;;1.90;;
11197;SDS011;5655;48.744;9.162;2024-02-26T05:25:15;2.47;;;1.70;;
11197;SDS011;5655;48.744;9.162;2024-02-26T05:27:41;4.53;;;2.30;;
11197;SDS011;5655;48.744;9.162;2024-02-26T05:30:08;2.95;;;1.92;;
11197;SDS011;5655;48.744;9.162;2024-02-26T05:32:34;2.30;;;1.70;;
11197;SDS011;5655;48.744;9.162;2024-02-26T05:34:59;2.33;;;1.80;;
11197;SDS011;5655;48.744;9.162;2024-02-26T05:37:24;1.98;;;1.75;;
11197;SDS011;5655;48.744;9.162;2024-02-26T05:39:50;2.75;;;1.88;;
11197;SDS011;5655;48.744;9.162;2024-02-26T05:42:15;3.85;;;2.17;;
11197;SDS011;5655;48.744;9.162;2024-02-26T05:44:40;2.45;;;1.83;;
11197;SDS011;5655;48.744;9.162;2024-02-26T05:47:06;2.33;;;2.10;;
11197;SDS011;5655;48.744;9.162;2024-02-26T05:49:31;3.42;;;1.88;;
11197;SDS011;5655;48.744;9.162;2024-02-26T05:51:57;2.53;;;2.13;;
11197;SDS011;5655;48.744;9.162;2024-02-26T05:54:23;2.13;;;1.70;;
11197;SDS011;5655;48.744;9.162;2024-02-26T05:56:48;2.95;;;2.53;;
11197;SDS011;5655;48.744;9.162;2024-02-26T05:59:13;3.22;;;1.88;;
11197;SDS011;5655;48.744;9.162;2024-02-26T06:01:40;2.42;;;1.90;;
11197;SDS011;5655;48.744;9.162;2024-02-26T06:04:05;2.60;;;1.95;;
11197;SDS011;5655;48.744;9.162;2024-02-26T06:06:31;2.83;;;1.70;;
11197;SDS011;5655;48.744;9.162;2024-02-26T06:08:57;2.33;;;1.75;;
11197;SDS011;5655;48.744;9.162;2024-02-26T06:11:22;2.30;;;1.80;;
11197;SDS011;5655;48.744;9.162;2024-02-26T06:13:47;5.25;;;2.17;;
11197;SDS011;5655;48.744;9.162;2024-02-26T06:16:13;2.40;;;1.98;;
11197;SDS011;5655;48.744;9.162;2024-02-26T06:18:38;2.30;;;1.80;;
11197;SDS011;5655;48.744;9.162;2024-02-26T06:21:04;2.45;;;2.00;;
11197;SDS011;5655;48.744;9.162;2024-02-26T06:23:29;4.70;;;2.55;;
11197;SDS011;5655;48.744;9.162;2024-02-26T06:25:54;3.08;;;1.80;;
11197;SDS011;5655;48.744;9.162;2024-02-26T06:28:20;3.65;;;2.20;;
11197;SDS011;5655;48.744;9.162;2024-02-26T06:30:45;3.80;;;2.30;;
11197;SDS011;5655;48.744;9.162;2024-02-26T06:33:11;2.67;;;2.15;;
11197;SDS011;5655;48.744;9.162;2024-02-26T06:35:37;3.67;;;2.35;;
11197;SDS011;5655;48.744;9.162;2024-02-26T06:38:02;2.08;;;1.88;;
11197;SDS011;5655;48.744;9.162;2024-02-26T06:40:29;2.90;;;2.20;;
11197;SDS011;5655;48.744;9.162;2024-02-26T06:42:55;2.38;;;2.03;;
11197;SDS011;5655;48.744;9.162;2024-02-26T06:45:21;2.65;;;1.65;;
11197;SDS011;5655;48.744;9.162;2024-02-26T06:47:47;3.47;;;2.17;;
11197;SDS011;5655;48.744;9.162;2024-02-26T06:50:12;3.45;;;1.63;;
11197;SDS011;5655;48.744;9.162;2024-02-26T06:52:42;2.83;;;2.00;;
11197;SDS011;5655;48.744;9.162;2024-02-26T06:55:09;2.85;;;1.80;;
11197;SDS011;5655;48.744;9.162;2024-02-26T06:57:34;3.15;;;1.60;;
11197;SDS011;5655;48.744;9.162;2024-02-26T06:59:59;2.42;;;1.50;;
11197;SDS011;5655;48.744;9.162;2024-02-26T07:02:25;2.10;;;1.50;;
11197;SDS011;5655;48.744;9.162;2024-02-26T07:04:50;2.72;;;1.63;;
11197;SDS011;5655;48.744;9.162;2024-02-26T07:07:16;3.20;;;1.60;;
11197;SDS011;5655;48.744;9.162;2024-02-26T07:09:43;6.03;;;1.60;;
11197;SDS011;5655;48.744;9.162;2024-02-26T07:12:09;3.00;;;1.98;;
11197;SDS011;5655;48.744;9.162;2024-02-26T07:14:34;2.17;;;1.50;;
11197;SDS011;5655;48.744;9.162;2024-02-26T07:17:00;5.47;;;1.73;;
11197;SDS011;5655;48.744;9.162;2024-02-26T07:19:25;2.05;;;1.35;;
11197;SDS011;5655;48.744;9.162;2024-02-26T07:21:50;1.98;;;1.30;;
11197;SDS011;5655;48.744;9.162;2024-02-26T07:24:16;1.77;;;1.35;;
11197;SDS011;5655;48.744;9.162;2024-02-26T07:26:41;2.90;;;1.40;;
11197;SDS011;5655;48.744;9.162;2024-02-26T07:29:06;2.47;;;1.60;;
11197;SDS011;5655;48.744;9.162;2024-02-26T07:31:32;2.97;;;1.87;;
11197;SDS011;5655;48.744;9.162;2024-02-26T07:33:57;2.70;;;1.63;;
11197;SDS011;5655;48.744;9.162;2024-02-26T07:36:22;3.03;;;2.08;;
11197;SDS011;5655;48.744;9.162;2024-02-26T07:38:48;3.55;;;2.05;;
11197;SDS011;5655;48.744;9.162;2024-02-26T07:41:13;3.70;;;2.13;;
11197;SDS011;5655;48.744;9.162;2024-02-26T07:43:40;3.10;;;2.28;;
11197;SDS011;5655;48.744;9.162;2024-02-26T07:46:06;5.13;;;2.00;;
11197;SDS011;5655;48.744;9.162;2024-02-26T07:48:31;2.83;;;2.08;;
11197;SDS011;5655;48.744;9.162;2024-02-26T07:50:57;2.75;;;2.00;;
11197;SDS011;5655;48.744;9.162;2024-02-26T07:53:24;2.60;;;2.00;;
11197;SDS011;5655;48.744;9.162;2024-02-26T07:55:49;2.85;;;2.03;;
11197;SDS011;5655;48.744;9.162;2024-02-26T07:58:14;5.25;;;2.35;;
11197;SDS011;5655;48.744;9.162;2024-02-26T08:00:40;4.97;;;1.98;;
11197;SDS011;5655;48.744;9.162;2024-02-26T08:03:05;2.92;;;2.20;;
11197;SDS011;5655;48.744;9.162;2024-02-26T08:05:30;2.80;;;1.77;;
11197;SDS011;5655;48.744;9.162;2024-02-26T08:07:55;4.30;;;2.30;;
11197;SDS011;5655;48.744;9.162;2024-02-26T08:10:21;2.00;;;1.70;;
11197;SDS011;5655;48.744;9.162;2024-02-26T08:12:46;4.07;;;2.00;;
11197;SDS011;5655;48.744;9.162;2024-02-26T08:15:12;2.47;;;1.88;;
11197;SDS011;5655;48.744;9.162;2024-02-26T08:17:37;3.42;;;2.08;;
11197;SDS011;5655;48.744;9.162;2024-02-26T08:20:03;3.60;;;2.30;;
11197;SDS011;5655;48.744;9.162;2024-02-26T08:22:29;3.55;;;2.15;;
11197;SDS011;5655;48.744;9.162;2024-02-26T08:24:54;3.20;;;2.13;;
11197;SDS011;5655;48.744;9.162;2024-02-26T08:27:20;2.40;;;2.00;;
11197;SDS011;5655;48.744;9.162;2024-02-26T08:29:45;4.53;;;2.55;;
11197;SDS011;5655;48.744;9.162;2024-02-26T08:32:10;4.68;;;2.10;;
11197;SDS011;5655;48.744;9.162;2024-02-26T08:34:36;6.28;;;2.70;;
11197;SDS011;5655;48.744;9.162;2024-02-26T08:37:01;3.58;;;2.72;;
11197;SDS011;5655;48.744;9.162;2024-02-26T08:39:27;5.20;;;3.00;;
11197;SDS011;5655;48.744;9.162;2024-02-26T08:41:52;6.47;;;2.92;;
11197;SDS011;5655;48.744;9.162;2024-02-26T08:44:18;4.47;;;2.53;;
11197;SDS011;5655;48.744;9.162;2024-02-26T08:46:43;3.95;;;2.70;;
11197;SDS011;5655;48.744;9.162;2024-02-26T08:49:08;3.83;;;2.60;;
11197;SDS011;5655;48.744;9.162;2024-02-26T08:51:34;3.78;;;2.42;;
11197;SDS011;5655;48.744;9.162;2024-02-26T08:53:59;3.95;;;2.50;;
11197;SDS011;5655;48.744;9.162;2024-02-26T08:56:25;3.53;;;2.60;;
11197;SDS011;5655;48.744;9.162;2024-02-26T08:58:50;2.75;;;1.92;;
11197;SDS011;5655;48.744;9.162;2024-02-26T09:01:18;2.08;;;1.75;;
11197;SDS011;5655;48.744;9.162;2024-02-26T09:03:44;2.53;;;1.80;;
11197;SDS011;5655;48.744;9.162;2024-02-26T09:06:09;4.35;;;2.10;;
11197;SDS011;5655;48.744;9.162;2024-02-26T09:08:36;3.15;;;2.17;;
11197;SDS011;5655;48.744;9.162;2024-02-26T09:11:02;2.33;;;2.05;;
11197;SDS011;5655;48.744;9.162;2024-02-26T09:13:28;2.63;;;1.90;;
11197;SDS011;5655;48.744;9.162;2024-02-26T09:15:54;2.67;;;1.98;;
11197;SDS011;5655;48.744;9.162;2024-02-26T09:18:19;2.60;;;1.90;;
11197;SDS011;5655;48.744;9.162;2024-02-26T09:20:45;3.45;;;1.60;;
11197;SDS011;5655;48.744;9.162;2024-02-26T09:23:10;2.17;;;1.73;;
11197;SDS011;5655;48.744;9.162;2024-02-26T09:25:36;2.03;;;1.30;;
11197;SDS011;5655;48.744;9.162;2024-02-26T09:28:01;2.60;;;1.95;;
11197;SDS011;5655;48.744;9.162;2024-02-26T09:30:26;4.85;;;1.58;;
11197;SDS011;5655;48.744;9.162;2024-02-26T09:32:52;2.55;;;1.65;;
11197;SDS011;5655;48.744;9.162;2024-02-26T09:35:17;2.33;;;1.58;;
11197;SDS011;5655;48.744;9.162;2024-02-26T09:37:43;2.30;;;1.58;;
11197;SDS011;5655;48.744;9.162;2024-02-26T09:40:09;3.35;;;1.75;;
11197;SDS011;5655;48.744;9.162;2024-02-26T09:42:37;1.90;;;1.63;;
11197;SDS011;5655;48.744;9.162;2024-02-26T09:45:06;2.85;;;1.80;;
11197;SDS011;5655;48.744;9.162;2024-02-26T09:47:37;3.47;;;1.65;;
11197;SDS011;5655;48.744;9.162;2024-02-26T09:50:03;3.85;;;2.13;;
11197;SDS011;5655;48.744;9.162;2024-02-26T09:52:32;3.20;;;2.15;;
11197;SDS011;5655;48.744;9.162;2024-02-26T09:54:59;3.17;;;2.22;;
11197;SDS011;5655;48.744;9.162;2024-02-26T09:57:25;3.97;;;2.20;;
11197;SDS011;5655;48.744;9.162;2024-02-26T09:59:51;5.32;;;2.47;;
11197;SDS011;5655;48.744;9.162;2024-02-26T10:02:21;2.90;;;2.15;;
11197;SDS011;5655;48.744;9.162;2024-02-26T10:04:47;5.28;;;2.75;;
11197;SDS011;5655;48.744;9.162;2024-02-26T10:07:14;6.68;;;2.65;;
11197;SDS011;5655;48.744;9.162;2024-02-26T10:09:40;3.35;;;2.55;;
11197;SDS011;5655;48.744;9.162;2024-02-26T10:12:07;4.20;;;2.53;;
11197;SDS011;5655;48.744;9.162;2024-02-26T10:14:35;2.75;;;2.08;;
11197;SDS011;5655;48.744;9.162;2024-02-26T10:17:01;2.28;;;1.67;;
11197;SDS011;5655;48.744;9.162;2024-02-26T10:19:28;7.50;;;3.03;;
11197;SDS011;5655;48.744;9.162;2024-02-26T10:21:58;4.82;;;2.47;;
11197;SDS011;5655;48.744;9.162;2024-02-26T10:24:24;6.47;;;2.25;;
11197;SDS011;5655;48.744;9.162;2024-02-26T10:26:50;5.38;;;1.63;;
11197;SDS011;5655;48.744;9.162;2024-02-26T10:29:18;1.77;;;1.17;;
11197;SDS011;5655;48.744;9.162;2024-02-26T10:31:43;1.55;;;1.15;;
11197;SDS011;5655;48.744;9.162;2024-02-26T10:34:09;2.08;;;1.38;;
11197;SDS011;5655;48.744;9.162;2024-02-26T10:36:35;3.13;;;1.70;;
11197;SDS011;5655;48.744;9.162;2024-02-26T10:39:01;2.83;;;1.98;;
11197;SDS011;5655;48.744;9.162;2024-02-26T10:41:29;5.00;;;2.10;;
11197;SDS011;5655;48.744;9.162;2024-02-26T10:43:55;5.00;;;2.42;;
11197;SDS011;5655;48.744;9.162;2024-02-26T10:46:20;4.03;;;2.00;;
11197;SDS011;5655;48.744;9.162;2024-02-26T10:48:52;3.90;;;2.55;;
11197;SDS011;5655;48.744;9.162;2024-02-26T10:51:27;3.75;;;2.08;;
11197;SDS011;5655;48.744;9.162;2024-02-26T10:53:57;2.67;;;2.28;;
11197;SDS011;5655;48.744;9.162;2024-02-26T10:56:26;4.20;;;2.40;;
11197;SDS011;5655;48.744;9.162;2024-02-26T10:58:54;7.25;;;2.15;;
11197;SDS011;5655;48.744;9.162;2024-02-26T11:01:20;3.28;;;1.70;;
11197;SDS011;5655;48.744;9.162;2024-02-26T11:03:51;2.90;;;1.70;;
11197;SDS011;5655;48.744;9.162;2024-02-26T11:06:18;2.25;;;1.65;;
11197;SDS011;5655;48.744;9.162;2024-02-26T11:08:49;3.70;;;1.67;;
11197;SDS011;5655;48.744;9.162;2024-02-26T11:11:15;1.77;;;1.52;;
11197;SDS011;5655;48.744;9.162;2024-02-26T11:13:42;3.63;;;1.88;;
11197;SDS011;5655;48.744;9.162;2024-02-26T11:16:13;4.60;;;1.52;;
11197;SDS011;5655;48.744;9.162;2024-02-26T11:18:39;3.83;;;1.58;;
11197;SDS011;5655;48.744;9.162;2024-02-26T11:21:06;1.88;;;1.40;;
11197;SDS011;5655;48.744;9.162;2024-02-26T11:23:33;2.45;;;1.38;;
11197;SDS011;5655;48.744;9.162;2024-02-26T11:26:02;1.20;;;1.10;;
11197;SDS011;5655;48.744;9.162;2024-02-26T11:28:31;1.55;;;1.30;;
11197;SDS011;5655;48.744;9.162;2024-02-26T11:30:58;1.77;;;1.20;;
11197;SDS011;5655;48.744;9.162;2024-02-26T11:33:25;3.45;;;1.50;;
11197;SDS011;5655;48.744;9.162;2024-02-26T11:35:51;2.38;;;1.33;;
11197;SDS011;5655;48.744;9.162;2024-02-26T11:38:21;1.63;;;1.30;;
11197;SDS011;5655;48.744;9.162;2024-02-26T11:40:49;2.13;;;1.35;;
11197;SDS011;5655;48.744;9.162;2024-02-26T11:43:15;3.50;;;1.30;;
11197;SDS011;5655;48.744;9.162;2024-02-26T11:48:13;1.10;;;1.00;;
11197;SDS011;5655;48.744;9.162;2024-02-26T11:50:46;3.08;;;1.20;;
11197;SDS011;5655;48.744;9.162;2024-02-26T11:53:28;2.20;;;1.45;;
11197;SDS011;5655;48.744;9.162;2024-02-26T11:58:58;1.67;;;1.10;;
11197;SDS011;5655;48.744;9.162;2024-02-26T12:01:41;2.63;;;1.30;;
11197;SDS011;5655;48.744;9.162;2024-02-26T12:09:10;1.10;;;0.90;;
11197;SDS011;5655;48.744;9.162;2024-02-26T12:11:38;1.52;;;1.00;;
11197;SDS011;5655;48.744;9.162;2024-02-26T12:14:05;1.30;;;1.02;;
11197;SDS011;5655;48.744;9.162;2024-02-26T12:19:03;1.52;;;0.90;;
11197;SDS011;5655;48.744;9.162;2024-02-26T12:21:30;1.63;;;1.10;;
11197;SDS011;5655;48.744;9.162;2024-02-26T12:23:55;1.90;;;1.00;;
11197;SDS011;5655;48.744;9.162;2024-02-26T12:26:21;1.42;;;1.17;;
11197;SDS011;5655;48.744;9.162;2024-02-26T12:28:46;2.70;;;1.17;;
11197;SDS011;5655;48.744;9.162;2024-02-26T12:31:12;1.48;;;0.95;;
11197;SDS011;5655;48.744;9.162;2024-02-26T12:33:37;1.35;;;0.98;;
11197;SDS011;5655;48.744;9.162;2024-02-26T12:36:03;1.35;;;0.98;;
11197;SDS011;5655;48.744;9.162;2024-02-26T12:38:29;2.97;;;1.05;;
11197;SDS011;5655;48.744;9.162;2024-02-26T12:40:55;1.98;;;1.00;;
11197;SDS011;5655;48.744;9.162;2024-02-26T12:43:20;1.55;;;1.20;;
11197;SDS011;5655;48.744;9.162;2024-02-26T12:45:46;3.58;;;1.00;;
11197;SDS011;5655;48.744;9.162;2024-02-26T12:48:12;2.28;;;1.17;;
11197;SDS011;5655;48.744;9.162;2024-02-26T12:50:38;2.17;;;1.10;;
11197;SDS011;5655;48.744;9.162;2024-02-26T12:53:03;2.08;;;0.95;;
11197;SDS011;5655;48.744;9.162;2024-02-26T12:55:29;1.15;;;0.88;;
11197;SDS011;5655;48.744;9.162;2024-02-26T12:57:56;2.15;;;1.27;;
11197;SDS011;5655;48.744;9.162;2024-02-26T13:00:25;1.60;;;1.00;;
11197;SDS011;5655;48.744;9.162;2024-02-26T13:02:51;3.53;;;0.90;;
11197;SDS011;5655;48.744;9.162;2024-02-26T13:05:20;2.17;;;1.20;;
11197;SDS011;5655;48.744;9.162;2024-02-26T13:07:46;2.40;;;1.70;;
11197;SDS011;5655;48.744;9.162;2024-02-26T13:10:12;3.88;;;1.90;;
11197;SDS011;5655;48.744;9.162;2024-02-26T13:12:48;4.05;;;1.70;;
11197;SDS011;5655;48.744;9.162;2024-02-26T13:15:17;2.28;;;1.58;;
11197;SDS011;5655;48.744;9.162;2024-02-26T13:17:45;3.38;;;1.42;;
11197;SDS011;5655;48.744;9.162;2024-02-26T13:20:11;1.17;;;1.00;;
11197;SDS011;5655;48.744;9.162;2024-02-26T13:22:38;1.50;;;0.90;;
11197;SDS011;5655;48.744;9.162;2024-02-26T13:25:03;3.65;;;1.70;;
11197;SDS011;5655;48.744;9.162;2024-02-26T13:27:32;6.70;;;2.63;;
11197;SDS011;5655;48.744;9.162;2024-02-26T13:30:02;6.45;;;2.35;;
11197;SDS011;5655;48.744;9.162;2024-02-26T13:32:34;3.38;;;2.13;;
11197;SDS011;5655;48.744;9.162;2024-02-26T13:35:10;4.53;;;1.90;;
11197;SDS011;5655;48.744;9.162;2024-02-26T13:37:37;2.90;;;1.92;;
11197;SDS011;5655;48.744;9.162;2024-02-26T13:40:06;3.05;;;1.95;;
11197;SDS011;5655;48.744;9.162;2024-02-26T13:42:34;6.00;;;2.00;;
11197;SDS011;5655;48.744;9.162;2024-02-26T13:44:59;5.25;;;2.35;;
11197;SDS011;5655;48.744;9.162;2024-02-26T13:47:25;2.50;;;1.90;;
11197;SDS011;5655;48.744;9.162;2024-02-26T13:49:50;3.92;;;1.48;;
11197;SDS011;5655;48.744;9.162;2024-02-26T13:52:16;1.30;;;1.02;;
11197;SDS011;5655;48.744;9.162;2024-02-26T13:54:41;1.88;;;0.90;;
11197;SDS011;5655;48.744;9.162;2024-02-26T13:57:07;2.40;;;1.38;;
11197;SDS011;5655;48.744;9.162;2024-02-26T13:59:33;2.40;;;1.30;;
11197;SDS011;5655;48.744;9.162;2024-02-26T14:01:59;1.75;;;1.13;;
11197;SDS011;5655;48.744;9.162;2024-02-26T14:04:24;3.20;;;1.30;;
11197;SDS011;5655;48.744;9.162;2024-02-26T14:06:49;1.50;;;1.10;;
11197;SDS011;5655;48.744;9.162;2024-02-26T14:09:15;1.55;;;0.98;;
11197;SDS011;5655;48.744;9.162;2024-02-26T14:11:43;1.90;;;1.30;;
11197;SDS011;5655;48.744;9.162;2024-02-26T14:14:12;2.70;;;1.27;;
11197;SDS011;5655;48.744;9.162;2024-02-26T14:16:37;1.25;;;1.05;;
11197;SDS011;5655;48.744;9.162;2024-02-26T14:19:03;2.28;;;1.08;;
11197;SDS011;5655;48.744;9.162;2024-02-26T14:21:28;1.55;;;1.17;;
11197;SDS011;5655;48.744;9.162;2024-02-26T14:23:54;1.40;;;1.02;;
11197;SDS011;5655;48.744;9.162;2024-02-26T14:26:20;2.15;;;1.10;;
11197;SDS011;5655;48.744;9.162;2024-02-26T14:28:46;1.67;;;1.13;;
11197;SDS011;5655;48.744;9.162;2024-02-26T14:31:12;1.40;;;0.93;;
11197;SDS011;5655;48.744;9.162;2024-02-26T14:33:38;0.85;;;0.75;;
11197;SDS011;5655;48.744;9.162;2024-02-26T14:36:05;1.20;;;1.00;;
11197;SDS011;5655;48.744;9.162;2024-02-26T14:38:31;0.60;;;0.60;;
11197;SDS011;5655;48.744;9.162;2024-02-26T14:40:57;2.40;;;0.95;;
11197;SDS011;5655;48.744;9.162;2024-02-26T14:43:22;1.10;;;0.68;;
11197;SDS011;5655;48.744;9.162;2024-02-26T14:45:47;0.75;;;0.60;;
11197;SDS011;5655;48.744;9.162;2024-02-26T14:48:13;1.60;;;0.73;;
11197;SDS011;5655;48.744;9.162;2024-02-26T14:50:38;0.55;;;0.40;;
11197;SDS011;5655;48.744;9.162;2024-02-26T14:53:03;0.40;;;0.40;;
11197;SDS011;5655;48.744;9.162;2024-02-26T14:55:29;1.67;;;0.77;;
11197;SDS011;5655;48.744;9.162;2024-02-26T14:57:54;0.93;;;0.60;;
11197;SDS011;5655;48.744;9.162;2024-02-26T15:00:20;1.85;;;0.90;;
11197;SDS011;5655;48.744;9.162;2024-02-26T15:02:45;1.10;;;0.85;;
11197;SDS011;5655;48.744;9.162;2024-02-26T15:05:11;3.05;;;0.80;;
11197;SDS011;5655;48.744;9.162;2024-02-26T15:07:37;1.35;;;0.80;;